sensor_id;sensor_type;location;lat;lon;timestamp;P1;durP1;ratioP1;P2;durP2;ratioP2
8714;SDS011;4394;51.208;8.904;2023-01-16T00:02:16;2.47;;;1.00;;
8714;SDS011;4394;51.208;8.904;2023-01-16T00:05:05;4.23;;;0.93;;
8714;SDS011;4394;51.208;8.904;2023-01-16T00:07:53;3.73;;;1.00;;
8714;SDS011;4394;51.208;8.904;2023-01-16T00:10:42;2.87;;;0.63;;
8714;SDS011;4394;51.208;8.904;2023-01-16T00:13:31;2.57;;;1.07;;
8714;SDS011;4394;51.208;8.904;2023-01-16T00:16:19;2.00;;;0.97;;
8714;SDS011;4394;51.208;8.904;2023-01-16T00:19:09;3.43;;;0.80;;
8714;SDS011;4394;51.208;8.904;2023-01-16T00:21:57;3.67;;;1.03;;
8714;SDS011;4394;51.208;8.904;2023-01-16T00:24:45;2.37;;;0.87;;
8714;SDS011;4394;51.208;8.904;2023-01-16T00:27:33;1.57;;;0.60;;
8714;SDS011;4394;51.208;8.904;2023-01-16T00:30:21;2.60;;;1.00;;
8714;SDS011;4394;51.208;8.904;2023-01-16T00:33:10;2.53;;;1.00;;
8714;SDS011;4394;51.208;8.904;2023-01-16T00:36:00;2.80;;;0.97;;
8714;SDS011;4394;51.208;8.904;2023-01-16T00:38:49;3.13;;;0.93;;
8714;SDS011;4394;51.208;8.904;2023-01-16T00:41:37;2.03;;;0.70;;
8714;SDS011;4394;51.208;8.904;2023-01-16T00:44:25;1.90;;;0.80;;
8714;SDS011;4394;51.208;8.904;2023-01-16T00:47:13;1.77;;;0.93;;
8714;SDS011;4394;51.208;8.904;2023-01-16T00:50:01;1.13;;;0.80;;
8714;SDS011;4394;51.208;8.904;2023-01-16T00:52:51;1.93;;;0.90;;
8714;SDS011;4394;51.208;8.904;2023-01-16T00:55:40;4.13;;;1.00;;
8714;SDS011;4394;51.208;8.904;2023-01-16T00:58:28;1.33;;;0.73;;
8714;SDS011;4394;51.208;8.904;2023-01-16T01:01:16;2.33;;;1.00;;
8714;SDS011;4394;51.208;8.904;2023-01-16T01:04:05;1.40;;;0.83;;
8714;SDS011;4394;51.208;8.904;2023-01-16T01:06:53;2.13;;;1.00;;
8714;SDS011;4394;51.208;8.904;2023-01-16T01:09:42;2.07;;;0.83;;
8714;SDS011;4394;51.208;8.904;2023-01-16T01:12:30;5.87;;;1.20;;
8714;SDS011;4394;51.208;8.904;2023-01-16T01:15:18;1.57;;;1.03;;
8714;SDS011;4394;51.208;8.904;2023-01-16T01:18:07;5.53;;;1.00;;
8714;SDS011;4394;51.208;8.904;2023-01-16T01:20:55;2.43;;;1.07;;
8714;SDS011;4394;51.208;8.904;2023-01-16T01:23:43;4.43;;;1.30;;
8714;SDS011;4394;51.208;8.904;2023-01-16T01:26:33;1.90;;;1.00;;
8714;SDS011;4394;51.208;8.904;2023-01-16T01:29:21;2.33;;;1.03;;
8714;SDS011;4394;51.208;8.904;2023-01-16T01:32:09;4.67;;;1.30;;
8714;SDS011;4394;51.208;8.904;2023-01-16T01:34:57;5.13;;;1.23;;
8714;SDS011;4394;51.208;8.904;2023-01-16T01:37:47;2.80;;;1.10;;
8714;SDS011;4394;51.208;8.904;2023-01-16T01:40:35;2.93;;;1.60;;
8714;SDS011;4394;51.208;8.904;2023-01-16T01:43:38;3.20;;;1.23;;
8714;SDS011;4394;51.208;8.904;2023-01-16T01:46:29;3.00;;;1.20;;
8714;SDS011;4394;51.208;8.904;2023-01-16T01:49:26;3.23;;;1.17;;
8714;SDS011;4394;51.208;8.904;2023-01-16T01:52:17;1.13;;;1.00;;
8714;SDS011;4394;51.208;8.904;2023-01-16T01:55:08;4.07;;;1.53;;
8714;SDS011;4394;51.208;8.904;2023-01-16T01:57:59;2.47;;;1.13;;
8714;SDS011;4394;51.208;8.904;2023-01-16T02:00:52;2.87;;;1.27;;
8714;SDS011;4394;51.208;8.904;2023-01-16T02:03:42;1.60;;;0.93;;
8714;SDS011;4394;51.208;8.904;2023-01-16T02:06:37;2.90;;;1.40;;
8714;SDS011;4394;51.208;8.904;2023-01-16T02:09:30;3.37;;;1.30;;
8714;SDS011;4394;51.208;8.904;2023-01-16T02:12:18;1.73;;;1.23;;
8714;SDS011;4394;51.208;8.904;2023-01-16T02:15:07;1.17;;;0.80;;
8714;SDS011;4394;51.208;8.904;2023-01-16T02:17:57;3.77;;;1.00;;
8714;SDS011;4394;51.208;8.904;2023-01-16T02:21:06;3.40;;;1.13;;
8714;SDS011;4394;51.208;8.904;2023-01-16T02:24:12;1.07;;;0.90;;
8714;SDS011;4394;51.208;8.904;2023-01-16T02:27:20;1.13;;;0.70;;
8714;SDS011;4394;51.208;8.904;2023-01-16T02:30:55;2.43;;;1.00;;
8714;SDS011;4394;51.208;8.904;2023-01-16T02:34:00;2.07;;;1.10;;
8714;SDS011;4394;51.208;8.904;2023-01-16T02:37:04;1.77;;;0.90;;
8714;SDS011;4394;51.208;8.904;2023-01-16T02:40:02;3.83;;;0.93;;
8714;SDS011;4394;51.208;8.904;2023-01-16T02:43:03;3.20;;;0.90;;
8714;SDS011;4394;51.208;8.904;2023-01-16T02:46:04;1.93;;;1.00;;
8714;SDS011;4394;51.208;8.904;2023-01-16T02:48:59;2.43;;;1.00;;
8714;SDS011;4394;51.208;8.904;2023-01-16T02:51:55;2.03;;;1.07;;
8714;SDS011;4394;51.208;8.904;2023-01-16T02:54:46;3.63;;;1.30;;
8714;SDS011;4394;51.208;8.904;2023-01-16T02:57:40;2.63;;;1.07;;
8714;SDS011;4394;51.208;8.904;2023-01-16T03:00:33;2.47;;;1.00;;
8714;SDS011;4394;51.208;8.904;2023-01-16T03:03:29;1.83;;;1.00;;
8714;SDS011;4394;51.208;8.904;2023-01-16T03:06:27;3.43;;;1.10;;
8714;SDS011;4394;51.208;8.904;2023-01-16T03:09:22;1.47;;;1.20;;
8714;SDS011;4394;51.208;8.904;2023-01-16T03:12:21;2.90;;;1.00;;
8714;SDS011;4394;51.208;8.904;2023-01-16T03:15:18;0.87;;;0.80;;
8714;SDS011;4394;51.208;8.904;2023-01-16T03:18:15;2.80;;;1.23;;
8714;SDS011;4394;51.208;8.904;2023-01-16T03:21:12;1.77;;;1.07;;
8714;SDS011;4394;51.208;8.904;2023-01-16T03:24:07;2.30;;;1.20;;
8714;SDS011;4394;51.208;8.904;2023-01-16T03:27:07;3.50;;;1.00;;
8714;SDS011;4394;51.208;8.904;2023-01-16T03:29:59;1.60;;;1.03;;
8714;SDS011;4394;51.208;8.904;2023-01-16T03:32:56;2.97;;;1.07;;
8714;SDS011;4394;51.208;8.904;2023-01-16T03:35:52;2.63;;;1.10;;
8714;SDS011;4394;51.208;8.904;2023-01-16T03:38:44;2.93;;;1.17;;
8714;SDS011;4394;51.208;8.904;2023-01-16T03:41:34;2.00;;;1.43;;
8714;SDS011;4394;51.208;8.904;2023-01-16T03:44:26;2.00;;;1.20;;
8714;SDS011;4394;51.208;8.904;2023-01-16T03:47:20;1.97;;;1.20;;
8714;SDS011;4394;51.208;8.904;2023-01-16T03:50:13;5.63;;;1.60;;
8714;SDS011;4394;51.208;8.904;2023-01-16T03:53:05;4.47;;;1.00;;
8714;SDS011;4394;51.208;8.904;2023-01-16T03:56:00;1.40;;;1.10;;
8714;SDS011;4394;51.208;8.904;2023-01-16T03:59:08;3.20;;;1.10;;
8714;SDS011;4394;51.208;8.904;2023-01-16T04:01:57;1.83;;;1.50;;
8714;SDS011;4394;51.208;8.904;2023-01-16T04:04:49;4.60;;;1.97;;
8714;SDS011;4394;51.208;8.904;2023-01-16T04:07:42;1.83;;;1.40;;
8714;SDS011;4394;51.208;8.904;2023-01-16T04:10:34;4.00;;;1.30;;
8714;SDS011;4394;51.208;8.904;2023-01-16T04:13:26;4.17;;;1.97;;
8714;SDS011;4394;51.208;8.904;2023-01-16T04:16:15;2.97;;;1.60;;
8714;SDS011;4394;51.208;8.904;2023-01-16T04:19:05;2.50;;;1.30;;
8714;SDS011;4394;51.208;8.904;2023-01-16T04:21:55;2.97;;;1.30;;
8714;SDS011;4394;51.208;8.904;2023-01-16T04:24:43;5.73;;;1.73;;
8714;SDS011;4394;51.208;8.904;2023-01-16T04:27:31;4.50;;;1.50;;
8714;SDS011;4394;51.208;8.904;2023-01-16T04:30:20;3.27;;;1.70;;
8714;SDS011;4394;51.208;8.904;2023-01-16T04:33:08;4.07;;;1.77;;
8714;SDS011;4394;51.208;8.904;2023-01-16T04:35:56;4.93;;;1.90;;
8714;SDS011;4394;51.208;8.904;2023-01-16T04:38:45;4.80;;;2.07;;
8714;SDS011;4394;51.208;8.904;2023-01-16T04:41:33;3.10;;;1.63;;
8714;SDS011;4394;51.208;8.904;2023-01-16T04:44:23;2.63;;;1.93;;
8714;SDS011;4394;51.208;8.904;2023-01-16T04:47:13;4.60;;;2.10;;
8714;SDS011;4394;51.208;8.904;2023-01-16T04:50:01;4.03;;;2.03;;
8714;SDS011;4394;51.208;8.904;2023-01-16T04:52:49;3.10;;;1.93;;
8714;SDS011;4394;51.208;8.904;2023-01-16T04:55:37;5.77;;;2.47;;
8714;SDS011;4394;51.208;8.904;2023-01-16T04:58:25;5.20;;;2.17;;
8714;SDS011;4394;51.208;8.904;2023-01-16T05:01:13;2.37;;;1.97;;
8714;SDS011;4394;51.208;8.904;2023-01-16T05:04:03;3.53;;;1.60;;
8714;SDS011;4394;51.208;8.904;2023-01-16T05:06:52;2.63;;;1.90;;
8714;SDS011;4394;51.208;8.904;2023-01-16T05:09:40;3.30;;;1.73;;
8714;SDS011;4394;51.208;8.904;2023-01-16T05:12:28;2.97;;;2.00;;
8714;SDS011;4394;51.208;8.904;2023-01-16T05:15:16;2.23;;;2.10;;
8714;SDS011;4394;51.208;8.904;2023-01-16T05:18:04;4.03;;;1.97;;
8714;SDS011;4394;51.208;8.904;2023-01-16T05:20:54;3.20;;;2.00;;
8714;SDS011;4394;51.208;8.904;2023-01-16T05:23:42;3.27;;;1.80;;
8714;SDS011;4394;51.208;8.904;2023-01-16T05:26:30;4.33;;;2.10;;
8714;SDS011;4394;51.208;8.904;2023-01-16T05:29:18;2.30;;;2.10;;
8714;SDS011;4394;51.208;8.904;2023-01-16T05:32:06;2.33;;;2.00;;
8714;SDS011;4394;51.208;8.904;2023-01-16T05:34:54;3.17;;;2.03;;
8714;SDS011;4394;51.208;8.904;2023-01-16T05:37:43;3.53;;;2.00;;
8714;SDS011;4394;51.208;8.904;2023-01-16T05:40:31;3.43;;;2.03;;
8714;SDS011;4394;51.208;8.904;2023-01-16T05:43:19;4.77;;;2.17;;
8714;SDS011;4394;51.208;8.904;2023-01-16T05:46:08;3.67;;;1.83;;
8714;SDS011;4394;51.208;8.904;2023-01-16T05:48:56;4.67;;;2.03;;
8714;SDS011;4394;51.208;8.904;2023-01-16T05:51:44;4.40;;;1.97;;
8714;SDS011;4394;51.208;8.904;2023-01-16T05:54:33;1.87;;;1.50;;
8714;SDS011;4394;51.208;8.904;2023-01-16T05:57:22;3.20;;;1.70;;
8714;SDS011;4394;51.208;8.904;2023-01-16T06:00:11;1.93;;;1.47;;
8714;SDS011;4394;51.208;8.904;2023-01-16T06:02:59;3.03;;;1.63;;
8714;SDS011;4394;51.208;8.904;2023-01-16T06:05:47;3.00;;;1.90;;
8714;SDS011;4394;51.208;8.904;2023-01-16T06:08:35;2.90;;;1.60;;
8714;SDS011;4394;51.208;8.904;2023-01-16T06:11:25;2.00;;;1.40;;
8714;SDS011;4394;51.208;8.904;2023-01-16T06:14:13;2.90;;;1.77;;
8714;SDS011;4394;51.208;8.904;2023-01-16T06:17:01;2.80;;;1.70;;
8714;SDS011;4394;51.208;8.904;2023-01-16T06:19:49;2.83;;;1.63;;
8714;SDS011;4394;51.208;8.904;2023-01-16T06:22:37;3.17;;;1.87;;
8714;SDS011;4394;51.208;8.904;2023-01-16T06:25:25;3.83;;;1.63;;
8714;SDS011;4394;51.208;8.904;2023-01-16T06:28:14;3.77;;;2.00;;
8714;SDS011;4394;51.208;8.904;2023-01-16T06:31:03;4.30;;;1.70;;
8714;SDS011;4394;51.208;8.904;2023-01-16T06:33:51;1.70;;;1.50;;
8714;SDS011;4394;51.208;8.904;2023-01-16T06:36:39;3.37;;;1.87;;
8714;SDS011;4394;51.208;8.904;2023-01-16T06:39:27;3.97;;;1.70;;
8714;SDS011;4394;51.208;8.904;2023-01-16T06:42:15;4.33;;;1.73;;
8714;SDS011;4394;51.208;8.904;2023-01-16T06:45:05;3.00;;;1.70;;
8714;SDS011;4394;51.208;8.904;2023-01-16T06:47:54;2.60;;;1.77;;
8714;SDS011;4394;51.208;8.904;2023-01-16T06:50:42;3.30;;;1.50;;
8714;SDS011;4394;51.208;8.904;2023-01-16T06:53:30;2.93;;;1.70;;
8714;SDS011;4394;51.208;8.904;2023-01-16T06:56:18;3.53;;;1.60;;
8714;SDS011;4394;51.208;8.904;2023-01-16T06:59:06;1.60;;;1.50;;
8714;SDS011;4394;51.208;8.904;2023-01-16T07:01:55;3.57;;;1.50;;
8714;SDS011;4394;51.208;8.904;2023-01-16T07:04:44;4.37;;;1.47;;
8714;SDS011;4394;51.208;8.904;2023-01-16T07:07:32;4.23;;;1.47;;
8714;SDS011;4394;51.208;8.904;2023-01-16T07:10:20;1.70;;;1.47;;
8714;SDS011;4394;51.208;8.904;2023-01-16T07:13:09;4.37;;;1.50;;
8714;SDS011;4394;51.208;8.904;2023-01-16T07:15:58;4.43;;;1.30;;
8714;SDS011;4394;51.208;8.904;2023-01-16T07:19:07;2.53;;;1.50;;
8714;SDS011;4394;51.208;8.904;2023-01-16T07:22:17;3.07;;;1.23;;
8714;SDS011;4394;51.208;8.904;2023-01-16T07:25:27;3.10;;;1.30;;
8714;SDS011;4394;51.208;8.904;2023-01-16T07:28:18;3.27;;;1.37;;
8714;SDS011;4394;51.208;8.904;2023-01-16T07:31:07;2.10;;;1.27;;
8714;SDS011;4394;51.208;8.904;2023-01-16T07:33:55;1.70;;;1.10;;
8714;SDS011;4394;51.208;8.904;2023-01-16T07:36:45;1.60;;;1.13;;
8714;SDS011;4394;51.208;8.904;2023-01-16T07:39:33;6.73;;;1.47;;
8714;SDS011;4394;51.208;8.904;2023-01-16T07:42:21;4.30;;;1.47;;
8714;SDS011;4394;51.208;8.904;2023-01-16T07:45:09;2.87;;;1.30;;
8714;SDS011;4394;51.208;8.904;2023-01-16T07:47:57;3.20;;;1.33;;
8714;SDS011;4394;51.208;8.904;2023-01-16T07:50:50;1.90;;;1.00;;
8714;SDS011;4394;51.208;8.904;2023-01-16T07:53:40;3.87;;;1.47;;
8714;SDS011;4394;51.208;8.904;2023-01-16T07:56:28;4.70;;;1.30;;
8714;SDS011;4394;51.208;8.904;2023-01-16T07:59:16;4.10;;;1.23;;
8714;SDS011;4394;51.208;8.904;2023-01-16T08:02:04;3.53;;;1.17;;
8714;SDS011;4394;51.208;8.904;2023-01-16T08:04:52;3.27;;;1.00;;
8714;SDS011;4394;51.208;8.904;2023-01-16T08:07:40;2.50;;;1.03;;
8714;SDS011;4394;51.208;8.904;2023-01-16T08:10:29;3.43;;;1.60;;
8714;SDS011;4394;51.208;8.904;2023-01-16T08:13:17;2.33;;;0.90;;
8714;SDS011;4394;51.208;8.904;2023-01-16T08:16:06;4.53;;;1.50;;
8714;SDS011;4394;51.208;8.904;2023-01-16T08:18:54;4.87;;;1.10;;
8714;SDS011;4394;51.208;8.904;2023-01-16T08:21:42;1.80;;;1.17;;
8714;SDS011;4394;51.208;8.904;2023-01-16T08:24:30;2.00;;;1.20;;
8714;SDS011;4394;51.208;8.904;2023-01-16T08:27:19;3.43;;;1.17;;
8714;SDS011;4394;51.208;8.904;2023-01-16T08:30:08;4.20;;;1.47;;
8714;SDS011;4394;51.208;8.904;2023-01-16T08:32:57;2.13;;;1.10;;
8714;SDS011;4394;51.208;8.904;2023-01-16T08:35:46;4.40;;;1.90;;
8714;SDS011;4394;51.208;8.904;2023-01-16T08:38:34;2.00;;;0.93;;
8714;SDS011;4394;51.208;8.904;2023-01-16T08:41:22;3.43;;;1.20;;
8714;SDS011;4394;51.208;8.904;2023-01-16T08:44:29;4.47;;;0.97;;
8714;SDS011;4394;51.208;8.904;2023-01-16T08:47:34;2.40;;;0.90;;
8714;SDS011;4394;51.208;8.904;2023-01-16T08:50:42;3.23;;;1.20;;
8714;SDS011;4394;51.208;8.904;2023-01-16T08:53:49;1.80;;;1.23;;
8714;SDS011;4394;51.208;8.904;2023-01-16T08:56:37;1.60;;;1.00;;
8714;SDS011;4394;51.208;8.904;2023-01-16T08:59:30;4.03;;;0.77;;
8714;SDS011;4394;51.208;8.904;2023-01-16T09:02:20;1.73;;;1.20;;
8714;SDS011;4394;51.208;8.904;2023-01-16T09:05:08;3.37;;;1.00;;
8714;SDS011;4394;51.208;8.904;2023-01-16T09:07:56;1.10;;;0.40;;
8714;SDS011;4394;51.208;8.904;2023-01-16T09:10:44;2.30;;;1.00;;
8714;SDS011;4394;51.208;8.904;2023-01-16T09:13:52;2.93;;;0.70;;
8714;SDS011;4394;51.208;8.904;2023-01-16T09:16:44;1.63;;;0.90;;
8714;SDS011;4394;51.208;8.904;2023-01-16T09:19:32;2.03;;;1.20;;
8714;SDS011;4394;51.208;8.904;2023-01-16T09:22:20;2.23;;;0.90;;
8714;SDS011;4394;51.208;8.904;2023-01-16T09:25:09;4.70;;;1.17;;
8714;SDS011;4394;51.208;8.904;2023-01-16T09:27:57;1.27;;;0.80;;
8714;SDS011;4394;51.208;8.904;2023-01-16T09:30:46;3.07;;;1.30;;
8714;SDS011;4394;51.208;8.904;2023-01-16T09:33:35;1.97;;;1.23;;
8714;SDS011;4394;51.208;8.904;2023-01-16T09:36:24;2.77;;;0.90;;
8714;SDS011;4394;51.208;8.904;2023-01-16T09:39:12;4.63;;;1.13;;
8714;SDS011;4394;51.208;8.904;2023-01-16T09:42:15;2.10;;;1.13;;
8714;SDS011;4394;51.208;8.904;2023-01-16T09:45:42;2.97;;;0.70;;
8714;SDS011;4394;51.208;8.904;2023-01-16T09:48:33;4.30;;;0.80;;
8714;SDS011;4394;51.208;8.904;2023-01-16T09:51:27;3.43;;;0.87;;
8714;SDS011;4394;51.208;8.904;2023-01-16T09:54:21;3.60;;;1.10;;
8714;SDS011;4394;51.208;8.904;2023-01-16T09:57:30;4.63;;;0.93;;
8714;SDS011;4394;51.208;8.904;2023-01-16T10:00:38;1.73;;;1.00;;
8714;SDS011;4394;51.208;8.904;2023-01-16T10:03:26;2.13;;;0.83;;
8714;SDS011;4394;51.208;8.904;2023-01-16T10:06:18;3.43;;;1.00;;
8714;SDS011;4394;51.208;8.904;2023-01-16T10:09:12;2.00;;;0.73;;
8714;SDS011;4394;51.208;8.904;2023-01-16T10:12:08;1.67;;;0.80;;
8714;SDS011;4394;51.208;8.904;2023-01-16T10:15:01;2.60;;;0.73;;
8714;SDS011;4394;51.208;8.904;2023-01-16T10:18:04;2.97;;;0.77;;
8714;SDS011;4394;51.208;8.904;2023-01-16T10:21:11;2.70;;;0.73;;
8714;SDS011;4394;51.208;8.904;2023-01-16T10:24:25;2.33;;;0.80;;
8714;SDS011;4394;51.208;8.904;2023-01-16T10:27:27;1.53;;;0.70;;
8714;SDS011;4394;51.208;8.904;2023-01-16T10:30:21;1.47;;;0.80;;
8714;SDS011;4394;51.208;8.904;2023-01-16T10:33:13;1.97;;;0.43;;
8714;SDS011;4394;51.208;8.904;2023-01-16T10:36:05;1.27;;;0.53;;
8714;SDS011;4394;51.208;8.904;2023-01-16T10:38:58;4.20;;;0.83;;
8714;SDS011;4394;51.208;8.904;2023-01-16T10:41:49;1.70;;;0.70;;
8714;SDS011;4394;51.208;8.904;2023-01-16T10:45:07;1.57;;;0.80;;
8714;SDS011;4394;51.208;8.904;2023-01-16T10:48:17;1.10;;;0.43;;
8714;SDS011;4394;51.208;8.904;2023-01-16T10:51:23;1.10;;;0.50;;
8714;SDS011;4394;51.208;8.904;2023-01-16T10:54:11;1.87;;;0.57;;
8714;SDS011;4394;51.208;8.904;2023-01-16T10:57:01;1.27;;;0.50;;
8714;SDS011;4394;51.208;8.904;2023-01-16T10:59:52;3.70;;;1.53;;
8714;SDS011;4394;51.208;8.904;2023-01-16T11:02:45;2.20;;;0.80;;
8714;SDS011;4394;51.208;8.904;2023-01-16T11:05:35;1.43;;;0.57;;
8714;SDS011;4394;51.208;8.904;2023-01-16T11:08:23;3.07;;;0.80;;
8714;SDS011;4394;51.208;8.904;2023-01-16T11:11:12;1.30;;;0.60;;
8714;SDS011;4394;51.208;8.904;2023-01-16T11:14:21;1.80;;;0.57;;
8714;SDS011;4394;51.208;8.904;2023-01-16T11:17:29;1.90;;;0.60;;
8714;SDS011;4394;51.208;8.904;2023-01-16T11:20:36;2.33;;;0.90;;
8714;SDS011;4394;51.208;8.904;2023-01-16T11:23:36;1.77;;;0.70;;
8714;SDS011;4394;51.208;8.904;2023-01-16T11:26:26;3.73;;;0.70;;
8714;SDS011;4394;51.208;8.904;2023-01-16T11:29:15;2.57;;;0.73;;
8714;SDS011;4394;51.208;8.904;2023-01-16T11:32:06;2.23;;;0.87;;
8714;SDS011;4394;51.208;8.904;2023-01-16T11:34:57;1.00;;;0.77;;
8714;SDS011;4394;51.208;8.904;2023-01-16T11:37:48;1.73;;;0.73;;
8714;SDS011;4394;51.208;8.904;2023-01-16T11:40:44;1.43;;;0.60;;
8714;SDS011;4394;51.208;8.904;2023-01-16T11:43:34;1.70;;;0.93;;
8714;SDS011;4394;51.208;8.904;2023-01-16T11:46:40;1.87;;;0.70;;
8714;SDS011;4394;51.208;8.904;2023-01-16T11:49:34;1.33;;;0.53;;
8714;SDS011;4394;51.208;8.904;2023-01-16T11:52:25;1.07;;;0.60;;
8714;SDS011;4394;51.208;8.904;2023-01-16T11:55:16;1.73;;;0.70;;
8714;SDS011;4394;51.208;8.904;2023-01-16T11:58:05;0.80;;;0.67;;
8714;SDS011;4394;51.208;8.904;2023-01-16T12:01:00;1.07;;;0.60;;
8714;SDS011;4394;51.208;8.904;2023-01-16T12:03:59;0.63;;;0.60;;
8714;SDS011;4394;51.208;8.904;2023-01-16T12:06:56;2.07;;;0.70;;
8714;SDS011;4394;51.208;8.904;2023-01-16T12:09:50;1.33;;;0.50;;
8714;SDS011;4394;51.208;8.904;2023-01-16T12:12:44;0.90;;;0.50;;
8714;SDS011;4394;51.208;8.904;2023-01-16T12:16:06;1.10;;;0.50;;
8714;SDS011;4394;51.208;8.904;2023-01-16T12:19:07;1.70;;;0.57;;
8714;SDS011;4394;51.208;8.904;2023-01-16T12:22:11;0.50;;;0.43;;
8714;SDS011;4394;51.208;8.904;2023-01-16T12:25:14;1.57;;;0.70;;
8714;SDS011;4394;51.208;8.904;2023-01-16T12:28:10;0.50;;;0.40;;
8714;SDS011;4394;51.208;8.904;2023-01-16T12:31:14;0.80;;;0.80;;
8714;SDS011;4394;51.208;8.904;2023-01-16T12:34:28;0.90;;;0.43;;
8714;SDS011;4394;51.208;8.904;2023-01-16T12:37:35;1.53;;;0.83;;
8714;SDS011;4394;51.208;8.904;2023-01-16T12:40:34;1.47;;;0.60;;
8714;SDS011;4394;51.208;8.904;2023-01-16T12:43:33;1.40;;;0.60;;
8714;SDS011;4394;51.208;8.904;2023-01-16T12:46:28;0.80;;;0.67;;
8714;SDS011;4394;51.208;8.904;2023-01-16T12:49:31;1.43;;;0.60;;
8714;SDS011;4394;51.208;8.904;2023-01-16T12:52:31;0.90;;;0.37;;
8714;SDS011;4394;51.208;8.904;2023-01-16T12:55:41;1.13;;;0.50;;
8714;SDS011;4394;51.208;8.904;2023-01-16T12:58:53;1.17;;;0.63;;
8714;SDS011;4394;51.208;8.904;2023-01-16T13:01:44;0.60;;;0.43;;
8714;SDS011;4394;51.208;8.904;2023-01-16T13:04:36;0.70;;;0.60;;
8714;SDS011;4394;51.208;8.904;2023-01-16T13:07:28;0.97;;;0.60;;
8714;SDS011;4394;51.208;8.904;2023-01-16T13:10:22;0.67;;;0.60;;
8714;SDS011;4394;51.208;8.904;2023-01-16T13:13:33;0.40;;;0.40;;
8714;SDS011;4394;51.208;8.904;2023-01-16T13:16:25;1.80;;;0.60;;
8714;SDS011;4394;51.208;8.904;2023-01-16T13:19:19;0.97;;;0.50;;
8714;SDS011;4394;51.208;8.904;2023-01-16T13:22:13;0.90;;;0.60;;
8714;SDS011;4394;51.208;8.904;2023-01-16T13:25:13;0.60;;;0.60;;
8714;SDS011;4394;51.208;8.904;2023-01-16T13:28:07;0.90;;;0.50;;
8714;SDS011;4394;51.208;8.904;2023-01-16T13:31:06;0.97;;;0.60;;
8714;SDS011;4394;51.208;8.904;2023-01-16T13:34:03;1.10;;;0.60;;
8714;SDS011;4394;51.208;8.904;2023-01-16T13:37:08;1.00;;;0.50;;
8714;SDS011;4394;51.208;8.904;2023-01-16T13:43:36;1.10;;;0.60;;
8714;SDS011;4394;51.208;8.904;2023-01-16T13:46:45;1.23;;;0.63;;
8714;SDS011;4394;51.208;8.904;2023-01-16T13:49:35;0.80;;;0.80;;
8714;SDS011;4394;51.208;8.904;2023-01-16T13:52:24;0.67;;;0.67;;
8714;SDS011;4394;51.208;8.904;2023-01-16T13:55:20;1.03;;;0.70;;
8714;SDS011;4394;51.208;8.904;2023-01-16T13:58:14;0.70;;;0.70;;
8714;SDS011;4394;51.208;8.904;2023-01-16T14:01:06;1.50;;;1.33;;
8714;SDS011;4394;51.208;8.904;2023-01-16T14:04:30;1.10;;;0.80;;
8714;SDS011;4394;51.208;8.904;2023-01-16T14:11:03;2.30;;;1.23;;
8714;SDS011;4394;51.208;8.904;2023-01-16T14:14:16;4.03;;;2.33;;
8714;SDS011;4394;51.208;8.904;2023-01-16T14:21:01;1.90;;;1.33;;
8714;SDS011;4394;51.208;8.904;2023-01-16T14:23:52;2.23;;;1.60;;
8714;SDS011;4394;51.208;8.904;2023-01-16T14:26:49;3.70;;;1.07;;
8714;SDS011;4394;51.208;8.904;2023-01-16T14:29:44;1.43;;;1.00;;
8714;SDS011;4394;51.208;8.904;2023-01-16T14:32:35;1.07;;;0.93;;
8714;SDS011;4394;51.208;8.904;2023-01-16T14:35:26;2.10;;;1.50;;
8714;SDS011;4394;51.208;8.904;2023-01-16T14:38:18;0.60;;;0.60;;
8714;SDS011;4394;51.208;8.904;2023-01-16T14:41:11;1.30;;;0.77;;
8714;SDS011;4394;51.208;8.904;2023-01-16T14:44:27;0.60;;;0.60;;
8714;SDS011;4394;51.208;8.904;2023-01-16T14:47:32;1.97;;;0.80;;
8714;SDS011;4394;51.208;8.904;2023-01-16T14:50:42;2.77;;;1.80;;
8714;SDS011;4394;51.208;8.904;2023-01-16T14:53:49;3.53;;;1.20;;
8714;SDS011;4394;51.208;8.904;2023-01-16T14:57:00;1.47;;;0.90;;
8714;SDS011;4394;51.208;8.904;2023-01-16T14:59:54;0.63;;;0.63;;
8714;SDS011;4394;51.208;8.904;2023-01-16T15:02:49;0.80;;;0.80;;
8714;SDS011;4394;51.208;8.904;2023-01-16T15:05:42;1.00;;;0.70;;
8714;SDS011;4394;51.208;8.904;2023-01-16T15:08:38;0.60;;;0.50;;
8714;SDS011;4394;51.208;8.904;2023-01-16T15:11:30;1.70;;;0.50;;
8714;SDS011;4394;51.208;8.904;2023-01-16T15:14:20;0.93;;;0.60;;
8714;SDS011;4394;51.208;8.904;2023-01-16T15:17:21;1.20;;;0.63;;
8714;SDS011;4394;51.208;8.904;2023-01-16T15:20:32;1.73;;;0.90;;
8714;SDS011;4394;51.208;8.904;2023-01-16T15:23:39;0.90;;;0.67;;
8714;SDS011;4394;51.208;8.904;2023-01-16T15:26:30;0.60;;;0.50;;
8714;SDS011;4394;51.208;8.904;2023-01-16T15:29:37;1.27;;;0.70;;
8714;SDS011;4394;51.208;8.904;2023-01-16T15:35:41;0.80;;;0.63;;
8714;SDS011;4394;51.208;8.904;2023-01-16T15:38:34;1.67;;;0.60;;
8714;SDS011;4394;51.208;8.904;2023-01-16T15:41:26;1.00;;;0.57;;
8714;SDS011;4394;51.208;8.904;2023-01-16T15:44:33;0.57;;;0.37;;
8714;SDS011;4394;51.208;8.904;2023-01-16T15:47:56;0.63;;;0.50;;
8714;SDS011;4394;51.208;8.904;2023-01-16T15:50:57;1.90;;;0.70;;
8714;SDS011;4394;51.208;8.904;2023-01-16T15:53:48;1.77;;;0.80;;
8714;SDS011;4394;51.208;8.904;2023-01-16T15:56:42;0.63;;;0.50;;
8714;SDS011;4394;51.208;8.904;2023-01-16T15:59:46;0.57;;;0.40;;
8714;SDS011;4394;51.208;8.904;2023-01-16T16:02:41;0.30;;;0.30;;
8714;SDS011;4394;51.208;8.904;2023-01-16T16:05:30;0.20;;;0.20;;
8714;SDS011;4394;51.208;8.904;2023-01-16T16:08:21;0.97;;;0.40;;
8714;SDS011;4394;51.208;8.904;2023-01-16T16:11:14;0.67;;;0.40;;
8714;SDS011;4394;51.208;8.904;2023-01-16T16:14:28;0.63;;;0.60;;
8714;SDS011;4394;51.208;8.904;2023-01-16T16:17:36;1.03;;;0.73;;
8714;SDS011;4394;51.208;8.904;2023-01-16T16:20:42;0.73;;;0.70;;
8714;SDS011;4394;51.208;8.904;2023-01-16T16:23:32;0.20;;;0.20;;
8714;SDS011;4394;51.208;8.904;2023-01-16T16:26:20;0.50;;;0.50;;
8714;SDS011;4394;51.208;8.904;2023-01-16T16:29:14;0.50;;;0.50;;
8714;SDS011;4394;51.208;8.904;2023-01-16T16:32:10;1.03;;;0.67;;
8714;SDS011;4394;51.208;8.904;2023-01-16T16:35:01;0.40;;;0.40;;
8714;SDS011;4394;51.208;8.904;2023-01-16T16:37:49;0.53;;;0.50;;
8714;SDS011;4394;51.208;8.904;2023-01-16T16:40:37;0.57;;;0.47;;
8714;SDS011;4394;51.208;8.904;2023-01-16T16:46:32;0.40;;;0.40;;
8714;SDS011;4394;51.208;8.904;2023-01-16T16:49:29;0.67;;;0.50;;
8714;SDS011;4394;51.208;8.904;2023-01-16T16:52:22;0.50;;;0.50;;
8714;SDS011;4394;51.208;8.904;2023-01-16T16:55:28;1.73;;;0.60;;
8714;SDS011;4394;51.208;8.904;2023-01-16T16:58:18;1.03;;;0.53;;
8714;SDS011;4394;51.208;8.904;2023-01-16T17:01:10;0.77;;;0.60;;
8714;SDS011;4394;51.208;8.904;2023-01-16T17:04:00;1.60;;;0.50;;
8714;SDS011;4394;51.208;8.904;2023-01-16T17:06:52;0.90;;;0.53;;
8714;SDS011;4394;51.208;8.904;2023-01-16T17:09:40;0.60;;;0.60;;
8714;SDS011;4394;51.208;8.904;2023-01-16T17:12:28;2.00;;;0.63;;
8714;SDS011;4394;51.208;8.904;2023-01-16T17:15:16;1.20;;;0.60;;
8714;SDS011;4394;51.208;8.904;2023-01-16T17:18:04;0.87;;;0.70;;
8714;SDS011;4394;51.208;8.904;2023-01-16T17:20:52;0.80;;;0.50;;
8714;SDS011;4394;51.208;8.904;2023-01-16T17:23:43;1.77;;;0.87;;
8714;SDS011;4394;51.208;8.904;2023-01-16T17:26:31;1.47;;;1.37;;
8714;SDS011;4394;51.208;8.904;2023-01-16T17:29:21;1.13;;;0.90;;
8714;SDS011;4394;51.208;8.904;2023-01-16T17:32:25;0.90;;;0.80;;
8714;SDS011;4394;51.208;8.904;2023-01-16T17:35:16;1.10;;;1.00;;
8714;SDS011;4394;51.208;8.904;2023-01-16T17:38:06;0.60;;;0.60;;
8714;SDS011;4394;51.208;8.904;2023-01-16T17:40:59;0.40;;;0.40;;
8714;SDS011;4394;51.208;8.904;2023-01-16T17:43:47;0.60;;;0.60;;
8714;SDS011;4394;51.208;8.904;2023-01-16T17:46:53;0.87;;;0.53;;
8714;SDS011;4394;51.208;8.904;2023-01-16T17:49:41;0.40;;;0.40;;
8714;SDS011;4394;51.208;8.904;2023-01-16T17:52:46;0.70;;;0.57;;
8714;SDS011;4394;51.208;8.904;2023-01-16T17:55:39;0.70;;;0.63;;
8714;SDS011;4394;51.208;8.904;2023-01-16T17:58:43;1.07;;;0.90;;
8714;SDS011;4394;51.208;8.904;2023-01-16T18:01:39;0.97;;;0.87;;
8714;SDS011;4394;51.208;8.904;2023-01-16T18:04:27;0.63;;;0.63;;
8714;SDS011;4394;51.208;8.904;2023-01-16T18:07:19;0.93;;;0.50;;
8714;SDS011;4394;51.208;8.904;2023-01-16T18:10:07;0.40;;;0.40;;
8714;SDS011;4394;51.208;8.904;2023-01-16T18:12:56;0.70;;;0.40;;
8714;SDS011;4394;51.208;8.904;2023-01-16T18:16:04;0.60;;;0.40;;
8714;SDS011;4394;51.208;8.904;2023-01-16T18:19:10;0.80;;;0.60;;